Time;durP1;ratioP1;P1;durP2;ratioP2;P2;SDS_P1;SDS_P2;PMS_P1;PMS_P2;Temp;Humidity;BMP_temperature;BMP_pressure;BME280_temperature;BME280_humidity;BME280_pressure;Samples;Min_cycle;Max_cycle;Signal;HPM_P1;HPM_P2
2023/05/04 00:01:56;;;;;;;1.57;1.20;;;19.50;58.40;;;;;;5081598;28;20201;-46
2023/05/04 00:04:26;;;;;;;3.13;0.90;;;19.50;58.40;;;;;;5058513;28;20224;-47
2023/05/04 00:06:56;;;;;;;1.30;1.03;;;19.50;58.40;;;;;;5071734;28;20197;-46
2023/05/04 00:09:28;;;;;;;1.43;1.13;;;19.50;58.40;;;;;;5079586;28;20242;-46
2023/05/04 00:12:01;;;;;;;1.73;1.00;;;19.50;58.50;;;;;;5054616;28;20201;-46
2023/05/04 00:14:31;;;;;;;2.07;1.00;;;19.40;58.40;;;;;;5068072;28;20620;-46
2023/05/04 00:17:05;;;;;;;1.80;1.00;;;19.40;58.40;;;;;;5058008;28;20217;-47
2023/05/04 00:19:40;;;;;;;2.03;0.90;;;19.40;58.30;;;;;;5048395;28;20201;-46
2023/05/04 00:22:08;;;;;;;2.43;1.20;;;19.50;58.40;;;;;;5054699;28;20706;-46
2023/05/04 00:24:45;;;;;;;1.30;0.93;;;19.50;58.40;;;;;;5087448;28;20209;-46
2023/05/04 00:27:14;;;;;;;0.83;0.73;;;19.40;58.30;;;;;;5076626;28;20221;-47
2023/05/04 00:29:45;;;;;;;1.17;1.00;;;19.40;58.30;;;;;;5062695;28;20293;-47
2023/05/04 00:32:14;;;;;;;1.50;0.80;;;19.40;58.30;;;;;;5071887;28;20208;-46
2023/05/04 00:34:49;;;;;;;1.17;0.97;;;19.40;58.30;;;;;;5058538;28;20677;-47
2023/05/04 00:37:21;;;;;;;1.10;1.00;;;19.40;58.30;;;;;;5084780;28;20537;-47
2023/05/04 00:39:56;;;;;;;1.20;0.90;;;19.40;58.30;;;;;;5071621;28;20611;-47
2023/05/04 00:42:25;;;;;;;1.47;1.00;;;19.40;58.30;;;;;;5068905;28;20659;-47
2023/05/04 00:44:56;;;;;;;0.80;0.80;;;19.40;58.30;;;;;;5071517;28;20189;-47
2023/05/04 00:47:28;;;;;;;1.60;1.30;;;19.40;58.30;;;;;;5070997;28;20194;-47
2023/05/04 00:49:58;;;;;;;1.10;0.90;;;19.40;58.30;;;;;;5075259;28;20290;-46
2023/05/04 00:52:28;;;;;;;0.80;0.67;;;19.30;58.30;;;;;;5067087;28;20204;-46
2023/05/04 00:55:00;;;;;;;1.20;0.90;;;19.30;58.20;;;;;;5058922;28;20221;-47
2023/05/04 00:57:32;;;;;;;2.30;1.13;;;19.40;58.20;;;;;;5060100;28;20193;-47
2023/05/04 01:00:07;;;;;;;1.87;1.07;;;19.30;58.20;;;;;;5058665;28;20269;-46
2023/05/04 01:02:41;;;;;;;1.60;1.03;;;19.30;58.20;;;;;;5058852;28;20215;-47
2023/05/04 01:05:14;;;;;;;0.87;0.80;;;19.40;58.20;;;;;;5070917;28;20291;-47
2023/05/04 01:07:56;;;;;;;1.77;0.90;;;19.40;58.20;;;;;;5048205;28;20212;-47
2023/05/04 01:10:35;;;;;;;0.90;0.90;;;19.30;58.10;;;;;;5067171;28;20186;-47
2023/05/04 01:13:11;;;;;;;2.13;0.93;;;19.30;58.20;;;;;;5069978;28;20199;-47
2023/05/04 01:15:43;;;;;;;1.10;0.90;;;19.30;58.10;;;;;;5074043;28;20225;-46
2023/05/04 01:18:13;;;;;;;1.27;1.00;;;19.30;58.10;;;;;;5063093;28;20766;-47
2023/05/04 01:20:45;;;;;;;1.97;0.80;;;19.30;58.10;;;;;;5070425;28;20205;-46
2023/05/04 01:23:17;;;;;;;0.90;0.90;;;19.30;58.20;;;;;;5070216;28;20611;-47
2023/05/04 01:26:15;;;;;;;0.90;0.90;;;19.30;58.10;;;;;;5068212;28;20662;-46
2023/05/04 01:29:08;;;;;;;1.20;0.90;;;19.30;58.10;;;;;;5068162;28;20198;-47
2023/05/04 01:31:39;;;;;;;1.00;0.77;;;19.30;58.10;;;;;;5068602;28;20278;-47
2023/05/04 01:34:09;;;;;;;1.27;0.90;;;19.20;58.10;;;;;;5069906;28;20783;-46
2023/05/04 01:36:41;;;;;;;1.40;0.90;;;19.20;58.10;;;;;;5061346;28;20221;-47
2023/05/04 01:39:11;;;;;;;0.80;0.80;;;19.30;58.10;;;;;;5071176;28;20198;-46
2023/05/04 01:41:41;;;;;;;1.47;0.90;;;19.20;58.10;;;;;;5078706;28;20327;-47
2023/05/04 01:44:13;;;;;;;0.80;0.80;;;19.30;58.10;;;;;;5055862;28;20219;-46
2023/05/04 01:46:45;;;;;;;0.93;0.70;;;19.20;58.00;;;;;;5079164;28;20196;-47
2023/05/04 01:49:16;;;;;;;1.00;0.80;;;19.20;58.00;;;;;;5070477;28;20682;-46
2023/05/04 01:51:53;;;;;;;2.13;0.87;;;19.20;57.90;;;;;;5071001;28;20220;-46
2023/05/04 01:54:23;;;;;;;1.73;0.90;;;19.20;57.90;;;;;;5077593;28;20228;-46
2023/05/04 01:56:54;;;;;;;1.00;0.90;;;19.20;57.90;;;;;;5083197;28;20218;-47
2023/05/04 01:59:22;;;;;;;1.63;1.10;;;19.20;57.90;;;;;;5073824;28;20649;-47
2023/05/04 02:01:53;;;;;;;1.30;0.70;;;19.20;58.00;;;;;;5068093;28;20198;-46
2023/05/04 02:04:21;;;;;;;1.50;1.13;;;19.20;57.90;;;;;;5068867;28;20189;-46
2023/05/04 02:06:52;;;;;;;1.37;1.03;;;19.20;57.90;;;;;;5081622;28;20244;-46
2023/05/04 02:09:22;;;;;;;1.27;0.73;;;19.20;57.90;;;;;;5072666;28;20197;-46
2023/05/04 02:11:51;;;;;;;1.10;1.00;;;19.20;58.00;;;;;;5054581;28;20205;-46
2023/05/04 02:14:21;;;;;;;1.30;0.90;;;19.10;57.90;;;;;;5070992;28;20592;-46
2023/05/04 02:16:53;;;;;;;1.27;1.00;;;19.20;57.90;;;;;;5077615;28;20214;-46
2023/05/04 02:19:23;;;;;;;1.40;0.83;;;19.20;58.00;;;;;;5072171;28;20216;-46
2023/05/04 02:21:52;;;;;;;1.27;0.90;;;19.10;57.90;;;;;;5065205;28;20194;-47
2023/05/04 02:24:20;;;;;;;0.80;0.70;;;19.10;57.90;;;;;;5067343;28;20200;-47
2023/05/04 02:26:52;;;;;;;1.00;0.80;;;19.10;57.90;;;;;;5065313;28;20315;-46
2023/05/04 02:29:24;;;;;;;1.57;1.03;;;19.10;57.90;;;;;;5063999;28;20267;-46
2023/05/04 02:31:55;;;;;;;1.10;1.00;;;19.10;57.90;;;;;;5046624;28;20237;-46
2023/05/04 02:34:28;;;;;;;0.80;0.80;;;19.10;57.90;;;;;;5064258;28;20195;-47
2023/05/04 02:36:57;;;;;;;1.87;1.20;;;19.10;57.90;;;;;;5052090;28;20226;-46
2023/05/04 02:39:29;;;;;;;0.87;0.80;;;19.10;57.90;;;;;;5072077;28;20201;-47
2023/05/04 02:42:01;;;;;;;0.80;0.80;;;19.10;57.80;;;;;;5063941;28;20231;-47
2023/05/04 02:44:32;;;;;;;1.60;0.80;;;19.10;57.80;;;;;;5064305;28;20213;-47
2023/05/04 02:47:04;;;;;;;0.80;0.80;;;19.10;57.80;;;;;;5068640;28;20666;-47
2023/05/04 02:49:35;;;;;;;1.43;0.73;;;19.10;57.80;;;;;;5069675;28;20240;-47
2023/05/04 02:52:05;;;;;;;1.27;0.90;;;19.10;57.80;;;;;;5066018;28;20674;-46
2023/05/04 02:54:34;;;;;;;0.77;0.77;;;19.10;57.80;;;;;;5069534;28;20298;-46
2023/05/04 02:57:27;;;;;;;1.50;0.90;;;19.10;57.80;;;;;;5065031;28;20612;-47
2023/05/04 02:59:56;;;;;;;0.80;0.77;;;19.10;57.80;;;;;;5076059;28;20274;-46
2023/05/04 03:02:29;;;;;;;0.97;0.83;;;19.00;57.80;;;;;;5058973;28;20197;-46
2023/05/04 03:04:57;;;;;;;1.10;0.90;;;19.00;57.70;;;;;;5082467;28;20181;-47
2023/05/04 03:07:28;;;;;;;1.13;1.00;;;19.00;57.70;;;;;;5065764;28;20843;-46
2023/05/04 03:10:01;;;;;;;1.30;0.80;;;19.00;58.10;;;;;;5076888;28;20641;-46
2023/05/04 03:12:31;;;;;;;1.00;0.70;;;19.00;57.70;;;;;;5068183;28;20182;-46
2023/05/04 03:15:01;;;;;;;1.50;0.97;;;19.00;57.70;;;;;;5059990;28;20224;-47
2023/05/04 03:17:30;;;;;;;0.83;0.80;;;19.00;57.70;;;;;;5071436;28;20205;-47
2023/05/04 03:20:02;;;;;;;1.50;1.03;;;19.00;57.60;;;;;;5057201;28;20205;-47
2023/05/04 03:22:32;;;;;;;1.10;0.90;;;19.00;57.70;;;;;;5070678;28;20263;-47
2023/05/04 03:25:03;;;;;;;2.57;0.83;;;19.00;57.60;;;;;;5050747;28;20254;-46
2023/05/04 03:27:31;;;;;;;1.07;0.77;;;19.00;57.70;;;;;;5049414;28;20217;-47
2023/05/04 03:30:05;;;;;;;1.07;0.93;;;19.00;57.70;;;;;;5058382;28;20206;-46
2023/05/04 03:32:35;;;;;;;0.87;0.80;;;19.00;57.60;;;;;;5074729;28;20213;-47
2023/05/04 03:35:06;;;;;;;1.83;0.90;;;19.00;57.60;;;;;;5077122;28;20660;-47
2023/05/04 03:37:36;;;;;;;1.43;1.10;;;19.00;57.60;;;;;;5080948;28;20217;-47
2023/05/04 03:40:05;;;;;;;1.00;0.90;;;19.00;57.60;;;;;;5075611;28;20595;-46
2023/05/04 03:42:37;;;;;;;0.93;0.90;;;19.00;57.60;;;;;;5085330;28;20303;-47
2023/05/04 03:45:06;;;;;;;0.77;0.77;;;19.00;57.60;;;;;;5083416;28;20339;-47
2023/05/04 03:47:36;;;;;;;0.90;0.90;;;19.00;57.60;;;;;;5058417;28;20604;-47
2023/05/04 03:50:05;;;;;;;1.20;0.83;;;18.90;57.60;;;;;;5062062;28;20683;-47
2023/05/04 03:52:42;;;;;;;1.13;1.03;;;18.90;57.60;;;;;;5044440;28;20200;-47
2023/05/04 03:55:23;;;;;;;1.00;0.80;;;18.90;57.50;;;;;;5074854;28;20206;-47
2023/05/04 03:57:51;;;;;;;2.17;0.90;;;19.00;57.50;;;;;;5066559;28;20217;-45
2023/05/04 04:00:27;;;;;;;1.10;1.00;;;18.90;57.40;;;;;;5051844;28;20213;-45
2023/05/04 04:02:59;;;;;;;1.10;1.00;;;18.90;57.40;;;;;;5082462;28;20197;-47
2023/05/04 04:05:43;;;;;;;1.70;1.10;;;18.90;57.40;;;;;;5088281;28;20228;-45
2023/05/04 04:08:29;;;;;;;1.50;1.07;;;18.90;57.30;;;;;;5066824;28;20213;-47
2023/05/04 04:11:01;;;;;;;1.23;1.07;;;18.90;57.40;;;;;;5079253;28;20197;-45
2023/05/04 04:13:31;;;;;;;2.37;1.20;;;18.90;57.40;;;;;;5064928;28;20190;-47
2023/05/04 04:16:02;;;;;;;2.80;1.10;;;18.90;57.40;;;;;;5073597;28;20530;-48
2023/05/04 04:18:34;;;;;;;2.23;1.10;;;18.90;57.90;;;;;;5074164;28;20182;-48
2023/05/04 04:21:05;;;;;;;1.57;1.10;;;18.90;57.90;;;;;;5071874;28;20213;-46
2023/05/04 04:23:36;;;;;;;2.07;1.10;;;18.90;57.20;;;;;;5070087;28;20199;-47
2023/05/04 04:26:10;;;;;;;2.13;1.23;;;18.90;57.20;;;;;;5066574;28;20620;-46
2023/05/04 04:28:49;;;;;;;1.40;1.30;;;18.90;57.20;;;;;;5067468;28;20182;-47
2023/05/04 04:31:27;;;;;;;1.20;1.10;;;18.90;57.20;;;;;;5075412;28;20235;-47
2023/05/04 04:33:58;;;;;;;1.37;1.20;;;18.90;57.30;;;;;;5071152;28;20221;-47
2023/05/04 04:36:29;;;;;;;3.23;1.30;;;18.90;57.30;;;;;;5073029;28;20218;-46
2023/05/04 04:38:59;;;;;;;3.00;1.17;;;18.90;57.30;;;;;;5068446;28;20822;-47
2023/05/04 04:41:30;;;;;;;1.37;1.20;;;18.90;57.30;;;;;;5057859;28;20193;-48
2023/05/04 04:43:59;;;;;;;2.87;1.47;;;18.80;57.20;;;;;;5055427;28;20737;-48
2023/05/04 04:46:28;;;;;;;2.80;1.47;;;18.90;57.20;;;;;;5068920;28;20197;-47
2023/05/04 04:48:59;;;;;;;2.37;1.63;;;18.90;57.30;;;;;;5077094;28;20639;-47
2023/05/04 04:51:29;;;;;;;3.00;1.53;;;18.80;57.30;;;;;;5087685;28;20255;-47
2023/05/04 04:53:59;;;;;;;5.97;2.00;;;18.80;57.30;;;;;;5074489;28;20205;-47
2023/05/04 04:56:28;;;;;;;6.87;1.93;;;18.80;57.40;;;;;;5079148;28;20229;-47
2023/05/04 04:58:55;;;;;;;5.20;1.90;;;18.90;57.50;;;;;;5073478;28;20205;-47
2023/05/04 05:01:26;;;;;;;6.27;1.73;;;18.80;57.40;;;;;;5076216;28;20201;-45
2023/05/04 05:03:58;;;;;;;4.67;1.63;;;18.80;57.40;;;;;;5060537;28;20204;-45
2023/05/04 05:06:29;;;;;;;5.60;2.60;;;18.90;57.40;;;;;;5066165;28;20185;-46
2023/05/04 05:08:59;;;;;;;3.40;1.80;;;18.90;57.40;;;;;;5058103;28;20233;-46
2023/05/04 05:11:31;;;;;;;4.73;1.93;;;18.90;57.30;;;;;;5066375;28;20194;-45
2023/05/04 05:14:03;;;;;;;4.63;2.37;;;18.90;57.30;;;;;;5099976;28;20193;-45
2023/05/04 05:16:33;;;;;;;1.90;1.60;;;18.90;57.20;;;;;;5077373;28;20236;-47
2023/05/04 05:19:03;;;;;;;4.47;1.97;;;18.90;57.20;;;;;;5071285;28;20193;-47
2023/05/04 05:21:34;;;;;;;6.27;2.40;;;18.90;57.20;;;;;;5074192;28;20201;-45
2023/05/04 05:24:04;;;;;;;3.33;1.70;;;18.90;57.10;;;;;;5067962;28;20197;-48
2023/05/04 05:26:34;;;;;;;3.27;1.90;;;18.90;57.10;;;;;;5057665;28;20233;-46
2023/05/04 05:29:05;;;;;;;4.77;2.17;;;18.80;57.00;;;;;;5070567;28;20194;-48
2023/05/04 05:31:34;;;;;;;3.60;2.17;;;18.90;57.10;;;;;;5074270;28;20194;-48
2023/05/04 05:34:06;;;;;;;5.10;2.00;;;18.90;56.90;;;;;;5051499;28;20220;-48
2023/05/04 05:36:37;;;;;;;3.00;1.70;;;18.90;56.90;;;;;;5078986;28;20209;-48
2023/05/04 05:39:11;;;;;;;3.97;1.70;;;18.90;56.90;;;;;;5073599;28;20245;-48
2023/05/04 05:41:42;;;;;;;4.97;2.03;;;18.80;56.70;;;;;;5070220;28;20206;-48
2023/05/04 05:44:12;;;;;;;4.00;1.77;;;18.80;56.70;;;;;;5066275;28;20251;-48
2023/05/04 05:46:43;;;;;;;5.10;1.97;;;18.80;56.70;;;;;;5070295;28;20209;-47
2023/05/04 05:49:14;;;;;;;6.17;2.30;;;18.90;56.70;;;;;;5084127;28;20600;-47
2023/05/04 05:51:51;;;;;;;2.97;1.70;;;18.90;56.70;;;;;;5073807;28;20235;-47
2023/05/04 05:54:23;;;;;;;3.27;1.80;;;18.80;56.70;;;;;;5053120;28;20190;-48
2023/05/04 05:56:52;;;;;;;3.73;1.97;;;18.80;56.60;;;;;;5095954;28;20214;-47
2023/05/04 05:59:22;;;;;;;5.00;1.70;;;18.80;56.50;;;;;;5052237;28;20193;-47
2023/05/04 06:01:54;;;;;;;5.50;2.10;;;18.80;56.40;;;;;;5056371;28;20188;-47
2023/05/04 06:04:25;;;;;;;6.03;2.13;;;18.80;56.50;;;;;;5081416;28;20194;-47
2023/05/04 06:06:54;;;;;;;2.83;1.73;;;18.80;56.40;;;;;;5073506;28;20235;-46
2023/05/04 06:09:38;;;;;;;3.63;1.93;;;18.80;56.40;;;;;;5062798;28;20274;-46
2023/05/04 06:12:12;;;;;;;2.90;1.50;;;18.90;56.40;;;;;;5055129;28;20202;-47
2023/05/04 06:14:44;;;;;;;3.27;1.70;;;18.90;56.40;;;;;;5082574;28;20189;-47
2023/05/04 06:17:16;;;;;;;2.70;1.80;;;18.80;56.30;;;;;;5076848;28;20634;-45
2023/05/04 06:19:45;;;;;;;4.20;2.10;;;18.80;56.30;;;;;;5061885;28;20208;-47
2023/05/04 06:22:19;;;;;;;2.90;1.87;;;18.90;56.40;;;;;;5069415;28;20189;-46
2023/05/04 06:24:50;;;;;;;5.43;2.40;;;18.80;56.20;;;;;;5082108;28;20209;-47
2023/05/04 06:27:31;;;;;;;3.60;1.73;;;18.90;56.20;;;;;;5052931;28;20213;-46
2023/05/04 06:30:01;;;;;;;4.63;2.50;;;18.80;56.30;;;;;;5086371;28;20193;-46
2023/05/04 06:32:32;;;;;;;3.80;1.77;;;18.80;56.20;;;;;;5080713;28;20206;-47
2023/05/04 06:35:07;;;;;;;2.97;1.60;;;18.90;56.40;;;;;;5052483;28;20201;-46
2023/05/04 06:37:51;;;;;;;2.67;1.50;;;18.90;56.40;;;;;;5064440;28;20687;-48
2023/05/04 06:40:22;;;;;;;3.57;1.80;;;18.80;56.40;;;;;;5084745;28;20209;-47
2023/05/04 06:42:53;;;;;;;2.37;1.73;;;18.80;56.30;;;;;;5070747;28;20194;-47
2023/05/04 06:45:24;;;;;;;2.90;1.70;;;18.90;56.20;;;;;;5053284;28;20217;-45
2023/05/04 06:47:54;;;;;;;4.07;2.30;;;18.80;56.20;;;;;;5065950;28;20200;-46
2023/05/04 06:50:22;;;;;;;2.27;1.80;;;18.80;56.20;;;;;;5077615;28;20255;-45
2023/05/04 06:53:09;;;;;;;2.60;1.83;;;18.90;56.10;;;;;;5053520;28;20197;-45
2023/05/04 06:55:36;;;;;;;3.07;1.97;;;18.80;56.00;;;;;;5051578;28;20208;-45
2023/05/04 06:58:09;;;;;;;3.43;1.63;;;18.80;56.00;;;;;;5050421;28;20225;-45
2023/05/04 07:00:40;;;;;;;2.67;1.70;;;18.90;56.10;;;;;;5072490;28;20213;-47
2023/05/04 07:03:09;;;;;;;1.63;1.50;;;18.80;56.00;;;;;;5068556;28;20206;-47
2023/05/04 07:05:39;;;;;;;3.20;1.97;;;18.90;56.00;;;;;;5064413;28;20197;-46
2023/05/04 07:08:11;;;;;;;3.37;1.80;;;18.80;55.90;;;;;;5073951;28;20226;-46
2023/05/04 07:10:40;;;;;;;2.60;1.63;;;18.80;55.90;;;;;;5055515;28;20196;-45
2023/05/04 07:13:10;;;;;;;2.33;1.83;;;18.80;55.90;;;;;;5073282;28;20193;-45
2023/05/04 07:15:41;;;;;;;3.27;1.97;;;18.90;55.90;;;;;;5049021;28;20737;-47
2023/05/04 07:18:10;;;;;;;3.97;1.83;;;18.90;55.90;;;;;;5066350;28;20210;-46
2023/05/04 07:20:40;;;;;;;2.63;1.60;;;18.80;55.90;;;;;;5068705;28;20209;-45
2023/05/04 07:23:10;;;;;;;2.33;1.33;;;18.80;55.80;;;;;;5051093;28;20215;-46
2023/05/04 07:25:42;;;;;;;4.27;2.20;;;18.90;55.80;;;;;;5068869;28;20235;-48
2023/05/04 07:28:10;;;;;;;3.20;1.90;;;18.90;55.70;;;;;;5072301;28;20201;-48
2023/05/04 07:30:41;;;;;;;3.10;1.93;;;18.90;55.80;;;;;;5056334;28;20271;-45
2023/05/04 07:33:15;;;;;;;3.13;1.80;;;18.90;55.70;;;;;;5070670;28;20217;-45
2023/05/04 07:35:45;;;;;;;2.57;1.83;;;18.90;55.70;;;;;;5052653;28;20225;-48
2023/05/04 07:38:15;;;;;;;5.20;2.60;;;18.90;55.70;;;;;;5072343;28;20216;-47
2023/05/04 07:40:47;;;;;;;2.67;1.70;;;18.90;55.70;;;;;;5080152;28;20186;-46
2023/05/04 07:43:18;;;;;;;2.63;1.93;;;18.90;55.70;;;;;;5083321;28;20190;-46
2023/05/04 07:45:47;;;;;;;2.13;1.70;;;18.90;55.70;;;;;;5068671;28;20221;-47
2023/05/04 07:48:16;;;;;;;2.97;1.60;;;18.90;55.60;;;;;;5053594;28;20197;-47
2023/05/04 07:50:46;;;;;;;2.37;1.83;;;18.90;55.60;;;;;;5073571;28;20809;-46
2023/05/04 07:53:16;;;;;;;4.50;2.10;;;18.90;55.60;;;;;;5084972;28;20209;-46
2023/05/04 07:55:47;;;;;;;3.23;1.90;;;19.00;55.50;;;;;;5066857;28;20612;-47
2023/05/04 07:58:16;;;;;;;2.57;1.70;;;19.00;55.60;;;;;;5059313;28;20242;-48
2023/05/04 08:00:46;;;;;;;3.33;1.70;;;18.90;55.50;;;;;;5054579;28;20190;-46
2023/05/04 08:03:16;;;;;;;2.97;2.33;;;19.00;55.50;;;;;;5071621;28;20200;-49
2023/05/04 08:05:45;;;;;;;2.37;2.10;;;19.00;55.50;;;;;;5071688;28;20194;-45
2023/05/04 08:08:13;;;;;;;2.30;1.60;;;19.00;55.20;;;;;;5067385;28;20213;-47
2023/05/04 08:10:42;;;;;;;1.90;1.53;;;19.00;55.30;;;;;;5072399;28;20244;-46
2023/05/04 08:13:14;;;;;;;3.07;1.57;;;19.00;55.40;;;;;;5079898;28;20205;-46
2023/05/04 08:15:44;;;;;;;3.40;1.73;;;19.00;55.40;;;;;;5071951;28;20541;-48
2023/05/04 08:18:12;;;;;;;2.17;1.57;;;19.00;55.30;;;;;;5053627;28;20210;-48
2023/05/04 08:20:41;;;;;;;2.43;1.63;;;19.00;55.20;;;;;;5084697;28;20253;-46
2023/05/04 08:23:12;;;;;;;3.53;1.87;;;19.00;55.10;;;;;;5074280;28;20197;-46
2023/05/04 08:25:43;;;;;;;2.73;1.77;;;19.00;55.10;;;;;;5054758;28;20263;-46
2023/05/04 08:28:11;;;;;;;2.43;1.60;;;19.00;55.30;;;;;;5080601;28;20217;-46
2023/05/04 08:30:42;;;;;;;3.40;1.90;;;19.00;55.20;;;;;;5071965;28;20733;-46
2023/05/04 08:33:24;;;;;;;3.13;2.20;;;19.00;55.20;;;;;;5073049;28;20703;-46
2023/05/04 08:35:53;;;;;;;3.70;2.10;;;19.00;55.00;;;;;;5088548;28;20197;-46
2023/05/04 08:38:25;;;;;;;2.97;1.63;;;19.10;55.20;;;;;;5069926;28;20205;-45
2023/05/04 08:40:55;;;;;;;3.03;1.80;;;19.00;55.20;;;;;;5075062;28;20205;-47
2023/05/04 08:43:26;;;;;;;1.70;1.60;;;19.10;55.30;;;;;;5082404;28;20197;-47
2023/05/04 08:45:53;;;;;;;2.90;1.90;;;19.10;55.30;;;;;;5064045;28;20217;-47
2023/05/04 08:48:26;;;;;;;3.17;1.70;;;19.10;55.40;;;;;;5059496;28;20201;-47
2023/05/04 08:50:58;;;;;;;4.00;1.93;;;19.10;55.40;;;;;;5073273;28;20737;-47
2023/05/04 08:53:28;;;;;;;4.20;1.73;;;19.10;55.40;;;;;;5056400;28;20535;-47
2023/05/04 08:56:03;;;;;;;2.80;1.60;;;19.10;55.40;;;;;;5079080;28;20231;-45
2023/05/04 08:58:36;;;;;;;2.40;1.57;;;19.10;55.40;;;;;;5063541;28;20616;-45
2023/05/04 09:01:11;;;;;;;2.40;1.83;;;19.10;55.40;;;;;;5062955;28;20181;-48
2023/05/04 09:03:46;;;;;;;2.00;1.50;;;19.10;55.40;;;;;;5089110;28;20192;-48
2023/05/04 09:06:18;;;;;;;2.60;1.90;;;19.10;55.40;;;;;;5077263;28;20206;-48
2023/05/04 09:08:48;;;;;;;2.13;1.57;;;19.10;55.40;;;;;;5062472;28;20201;-48
2023/05/04 09:11:21;;;;;;;2.70;1.77;;;19.20;55.40;;;;;;5089599;28;20197;-46
2023/05/04 09:13:52;;;;;;;2.57;1.77;;;19.20;55.50;;;;;;5065644;28;20193;-46
2023/05/04 09:16:22;;;;;;;1.50;1.30;;;19.20;55.50;;;;;;5076981;28;20595;-45
2023/05/04 09:18:53;;;;;;;2.10;1.80;;;19.20;55.40;;;;;;5072914;28;20209;-46
2023/05/04 09:21:53;;;;;;;2.23;1.90;;;19.20;55.50;;;;;;5087611;28;20194;-47
2023/05/04 09:24:30;;;;;;;3.83;1.80;;;19.20;55.50;;;;;;5075029;28;20201;-47
2023/05/04 09:27:10;;;;;;;3.07;1.70;;;19.20;55.50;;;;;;5060129;28;20698;-45
2023/05/04 09:29:42;;;;;;;3.37;1.73;;;19.20;55.60;;;;;;5053434;28;20181;-45
2023/05/04 09:32:14;;;;;;;2.27;1.80;;;19.20;55.50;;;;;;5050031;28;20229;-45
2023/05/04 09:34:51;;;;;;;2.53;1.83;;;19.20;55.50;;;;;;5077552;28;20212;-46
2023/05/04 09:37:21;;;;;;;2.83;1.73;;;19.30;55.60;;;;;;5054158;28;20578;-47
2023/05/04 09:39:58;;;;;;;3.10;1.83;;;19.30;55.50;;;;;;5075879;28;20197;-46
2023/05/04 09:42:28;;;;;;;3.60;1.93;;;19.30;55.40;;;;;;5076609;28;20203;-48
2023/05/04 09:45:08;;;;;;;4.50;2.17;;;19.30;55.40;;;;;;5076755;28;20877;-47
2023/05/04 09:47:38;;;;;;;3.27;2.00;;;19.30;55.40;;;;;;5063473;28;20215;-49
2023/05/04 09:50:15;;;;;;;2.60;1.57;;;19.30;55.30;;;;;;5063697;28;20236;-47
2023/05/04 09:52:50;;;;;;;2.70;1.90;;;19.30;55.30;;;;;;5041555;28;20193;-47
2023/05/04 09:55:23;;;;;;;3.17;1.70;;;19.30;55.40;;;;;;5070306;28;20248;-46
2023/05/04 09:57:54;;;;;;;3.20;1.80;;;19.30;55.40;;;;;;5052084;28;20229;-47
2023/05/04 10:00:26;;;;;;;2.13;1.63;;;19.40;55.40;;;;;;5060629;28;20193;-45
2023/05/04 10:02:57;;;;;;;3.73;2.03;;;19.40;55.30;;;;;;5072181;28;20194;-45
2023/05/04 10:05:28;;;;;;;3.03;2.17;;;19.40;55.30;;;;;;5070894;28;20201;-48
2023/05/04 10:08:04;;;;;;;1.63;1.53;;;19.40;55.10;;;;;;5064748;28;20201;-48
2023/05/04 10:10:42;;;;;;;1.97;1.77;;;19.40;55.20;;;;;;5075148;28;20194;-48
2023/05/04 10:13:16;;;;;;;2.97;1.87;;;19.40;55.40;;;;;;5039059;28;20630;-47
2023/05/04 10:16:13;;;;;;;3.93;2.23;;;19.40;55.40;;;;;;5051135;28;20582;-48
2023/05/04 10:19:06;;;;;;;3.87;1.90;;;19.40;55.20;;;;;;5067768;28;20217;-48
2023/05/04 10:22:00;;;;;;;2.53;1.87;;;19.50;55.50;;;;;;5075709;28;20608;-48
2023/05/04 10:24:52;;;;;;;2.40;2.20;;;19.50;55.50;;;;;;5082022;28;20202;-46
2023/05/04 10:27:53;;;;;;;2.10;1.90;;;19.50;55.30;;;;;;5079536;28;20199;-46
2023/05/04 10:30:23;;;;;;;1.87;1.67;;;19.50;55.60;;;;;;5080987;28;20197;-47
2023/05/04 10:32:57;;;;;;;2.60;1.70;;;19.50;55.70;;;;;;5058307;28;20590;-48
2023/05/04 10:35:29;;;;;;;2.60;2.17;;;19.50;55.70;;;;;;5067974;28;20614;-48
2023/05/04 10:37:58;;;;;;;2.23;1.70;;;19.50;55.60;;;;;;5071437;28;20232;-48
2023/05/04 10:40:41;;;;;;;5.17;2.03;;;19.60;55.70;;;;;;5084238;28;20192;-45
2023/05/04 10:43:24;;;;;;;4.90;1.90;;;19.60;55.70;;;;;;5082760;28;20193;-46
2023/05/04 10:45:56;;;;;;;3.30;1.90;;;19.60;55.60;;;;;;5070119;28;20635;-45
2023/05/04 10:48:34;;;;;;;5.50;2.23;;;19.60;55.60;;;;;;5085429;28;20192;-45
2023/05/04 10:51:05;;;;;;;6.77;2.50;;;19.70;55.60;;;;;;5047926;28;20265;-45
2023/05/04 10:53:34;;;;;;;7.37;2.37;;;19.70;55.70;;;;;;5047910;28;20217;-45
2023/05/04 10:56:05;;;;;;;4.60;2.23;;;19.70;56.10;;;;;;5051710;28;20990;-46
2023/05/04 10:58:37;;;;;;;3.97;2.33;;;19.70;56.20;;;;;;5050828;28;20209;-46
2023/05/04 11:01:12;;;;;;;5.77;2.63;;;19.80;56.40;;;;;;5043298;28;20253;-45
2023/05/04 11:03:43;;;;;;;13.77;2.67;;;19.80;56.70;;;;;;5050467;28;20244;-45
2023/05/04 11:06:26;;;;;;;15.57;2.70;;;19.90;56.80;;;;;;5045691;28;20217;-46
2023/05/04 11:09:02;;;;;;;11.67;2.80;;;19.90;57.30;;;;;;5038390;28;20707;-46
2023/05/04 11:11:38;;;;;;;9.23;2.33;;;20.00;57.40;;;;;;5031273;28;20194;-45
2023/05/04 11:14:31;;;;;;;8.03;2.37;;;20.10;57.30;;;;;;5064437;28;20934;-45
2023/05/04 11:17:09;;;;;;;10.77;2.60;;;20.20;56.70;;;;;;5060091;28;20202;-44
2023/05/04 11:20:03;;;;;;;7.67;2.43;;;20.30;56.40;;;;;;5003118;28;20699;-44
2023/05/04 11:22:36;;;;;;;6.60;2.60;;;20.40;55.90;;;;;;5004760;28;20200;-44
2023/05/04 11:25:08;;;;;;;4.17;2.33;;;20.40;55.70;;;;;;5022458;28;20258;-45
2023/05/04 11:27:40;;;;;;;5.90;2.37;;;20.40;55.60;;;;;;5016176;28;20203;-45
2023/05/04 11:30:16;;;;;;;9.43;2.60;;;20.50;55.40;;;;;;5022817;28;20199;-45
2023/05/04 11:32:46;;;;;;;9.20;2.60;;;20.60;55.60;;;;;;5003676;28;20200;-45
2023/05/04 11:35:21;;;;;;;2.97;2.13;;;20.60;55.50;;;;;;5007509;28;20242;-45
2023/05/04 11:37:52;;;;;;;5.43;2.00;;;20.70;55.80;;;;;;5028553;28;20217;-44
2023/05/04 11:40:27;;;;;;;8.17;2.10;;;20.80;55.50;;;;;;5061195;28;20190;-45
2023/05/04 11:42:59;;;;;;;10.50;2.57;;;20.90;55.30;;;;;;5059112;28;20212;-45
2023/05/04 11:45:35;;;;;;;4.67;2.10;;;21.00;55.20;;;;;;5020911;28;20211;-44
2023/05/04 11:48:08;;;;;;;8.40;1.87;;;21.00;55.40;;;;;;5021180;28;20194;-44
2023/05/04 11:50:40;;;;;;;9.13;2.60;;;21.10;55.20;;;;;;5053740;28;20248;-44
2023/05/04 11:53:12;;;;;;;6.90;1.80;;;21.20;55.10;;;;;;5064454;28;20293;-45
2023/05/04 11:55:42;;;;;;;2.97;2.20;;;21.20;54.50;;;;;;5093561;28;20242;-46
2023/05/04 11:58:12;;;;;;;4.13;2.33;;;21.30;55.10;;;;;;5067938;28;20233;-45
2023/05/04 12:00:45;;;;;;;8.43;2.30;;;21.30;54.90;;;;;;5074284;28;20194;-45
2023/05/04 12:03:31;;;;;;;7.30;2.33;;;21.30;55.20;;;;;;5079944;28;20833;-45
2023/05/04 12:06:05;;;;;;;5.07;2.80;;;21.40;54.70;;;;;;5063850;28;20653;-45
2023/05/04 12:08:40;;;;;;;4.23;2.27;;;21.40;54.80;;;;;;5066440;28;20214;-45
2023/05/04 12:11:24;;;;;;;4.97;2.40;;;21.40;55.00;;;;;;5060292;28;20208;-44
2023/05/04 12:14:12;;;;;;;7.20;2.30;;;21.50;54.90;;;;;;5062804;28;20202;-44
2023/05/04 12:16:56;;;;;;;3.90;2.20;;;21.50;54.80;;;;;;5071524;28;20634;-45
2023/05/04 12:19:25;;;;;;;2.50;2.30;;;21.60;54.90;;;;;;5057096;28;20662;-45
2023/05/04 12:22:07;;;;;;;3.13;2.30;;;21.60;54.90;;;;;;5065092;28;20647;-44
2023/05/04 12:24:39;;;;;;;2.93;1.90;;;21.60;54.60;;;;;;5067299;28;20190;-44
2023/05/04 12:27:13;;;;;;;2.70;2.00;;;21.60;54.60;;;;;;5060661;28;20194;-44
2023/05/04 12:29:44;;;;;;;2.97;2.20;;;21.60;54.60;;;;;;5097447;28;20200;-45
2023/05/04 12:32:11;;;;;;;4.13;1.97;;;21.60;54.70;;;;;;5060652;28;20218;-44
2023/05/04 12:34:43;;;;;;;2.93;2.03;;;21.70;54.50;;;;;;5071000;28;20544;-44
2023/05/04 12:37:15;;;;;;;3.67;2.20;;;21.70;55.30;;;;;;5073255;28;20190;-44
2023/05/04 12:39:45;;;;;;;3.17;2.10;;;21.80;54.60;;;;;;5066218;28;20221;-44
2023/05/04 12:42:16;;;;;;;2.57;2.07;;;21.80;54.60;;;;;;5053091;28;20197;-45
2023/05/04 12:44:47;;;;;;;3.73;2.13;;;21.90;54.30;;;;;;5071165;28;20263;-46
2023/05/04 12:47:17;;;;;;;2.43;1.90;;;21.90;54.30;;;;;;5072042;28;20213;-45
2023/05/04 12:49:49;;;;;;;3.60;1.90;;;21.90;54.30;;;;;;5061432;28;20227;-45
2023/05/04 12:52:19;;;;;;;5.00;2.47;;;21.90;54.30;;;;;;5058608;28;20207;-44
2023/05/04 12:54:51;;;;;;;8.43;2.20;;;22.00;54.20;;;;;;5050288;28;20229;-44
2023/05/04 12:57:23;;;;;;;8.03;2.40;;;22.00;54.40;;;;;;5052912;28;20222;-45
2023/05/04 12:59:53;;;;;;;6.03;2.67;;;22.10;55.90;;;;;;5049277;28;20222;-45
2023/05/04 13:02:25;;;;;;;6.90;3.10;;;22.00;57.20;;;;;;5055838;28;20202;-45
2023/05/04 13:04:54;;;;;;;7.07;3.10;;;22.10;60.80;;;;;;5043295;28;20202;-45
2023/05/04 13:07:29;;;;;;;5.17;3.10;;;22.00;60.90;;;;;;5055505;28;20214;-45
2023/05/04 13:09:58;;;;;;;7.43;3.00;;;22.00;61.00;;;;;;5043286;28;20222;-45
2023/05/04 13:12:29;;;;;;;5.37;3.00;;;22.00;61.10;;;;;;5042422;28;20186;-44
2023/05/04 13:14:59;;;;;;;3.93;3.20;;;22.00;62.00;;;;;;5048241;28;20686;-44